sensor_id;sensor_type;location;lat;lon;timestamp;pressure;altitude;pressure_sealevel;temperature;humidity
75418;BME280;63997;52.112;5.420;2023-03-25T00:00:10;100226.44;;;9.25;78.50
75418;BME280;63997;52.112;5.420;2023-03-25T00:02:42;100205.53;;;9.23;78.53
75418;BME280;63997;52.112;5.420;2023-03-25T00:05:11;100217.25;;;9.22;78.90
75418;BME280;63997;52.112;5.420;2023-03-25T00:07:41;100218.38;;;9.21;78.64
75418;BME280;63997;52.112;5.420;2023-03-25T00:10:08;100220.25;;;9.21;78.81
75418;BME280;63997;52.112;5.420;2023-03-25T00:12:38;100222.13;;;9.20;78.22
75418;BME280;63997;52.112;5.420;2023-03-25T00:15:09;100217.44;;;9.17;78.33
75418;BME280;63997;52.112;5.420;2023-03-25T00:17:36;100215.56;;;9.18;78.57
75418;BME280;63997;52.112;5.420;2023-03-25T00:20:05;100221.97;;;9.17;78.94
75418;BME280;63997;52.112;5.420;2023-03-25T00:22:34;100232.94;;;9.15;79.01
75418;BME280;63997;52.112;5.420;2023-03-25T00:25:12;100223.38;;;9.14;78.89
75418;BME280;63997;52.112;5.420;2023-03-25T00:27:42;100215.44;;;9.14;78.95
75418;BME280;63997;52.112;5.420;2023-03-25T00:30:12;100218.09;;;9.14;79.13
75418;BME280;63997;52.112;5.420;2023-03-25T00:32:38;100214.66;;;9.14;79.29
75418;BME280;63997;52.112;5.420;2023-03-25T00:35:05;100216.88;;;9.12;79.17
75418;BME280;63997;52.112;5.420;2023-03-25T00:37:33;100226.72;;;9.11;79.39
75418;BME280;63997;52.112;5.420;2023-03-25T00:40:00;100210.78;;;9.11;79.23
75418;BME280;63997;52.112;5.420;2023-03-25T00:42:26;100221.41;;;9.11;79.24
75418;BME280;63997;52.112;5.420;2023-03-25T00:44:53;100212.66;;;9.11;78.95
75418;BME280;63997;52.112;5.420;2023-03-25T00:47:19;100223.63;;;9.09;79.35
75418;BME280;63997;52.112;5.420;2023-03-25T00:49:48;100227.34;;;9.08;79.35
75418;BME280;63997;52.112;5.420;2023-03-25T00:52:15;100217.06;;;9.07;79.29
75418;BME280;63997;52.112;5.420;2023-03-25T00:54:41;100222.38;;;9.07;79.34
75418;BME280;63997;52.112;5.420;2023-03-25T00:57:08;100228.44;;;9.07;79.17
75418;BME280;63997;52.112;5.420;2023-03-25T00:59:35;100231.09;;;9.07;78.99
75418;BME280;63997;52.112;5.420;2023-03-25T01:02:01;100229.22;;;9.08;78.63
75418;BME280;63997;52.112;5.420;2023-03-25T01:04:28;100232.34;;;9.10;78.93
75418;BME280;63997;52.112;5.420;2023-03-25T01:06:55;100222.38;;;9.07;78.76
75418;BME280;63997;52.112;5.420;2023-03-25T01:09:21;100228.00;;;9.05;78.04
75418;BME280;63997;52.112;5.420;2023-03-25T01:11:48;100225.34;;;9.05;78.46
75418;BME280;63997;52.112;5.420;2023-03-25T01:14:17;100220.81;;;9.06;78.13
75418;BME280;63997;52.112;5.420;2023-03-25T01:16:44;100230.66;;;9.05;78.67
75418;BME280;63997;52.112;5.420;2023-03-25T01:19:12;100220.06;;;9.05;78.43
75418;BME280;63997;52.112;5.420;2023-03-25T01:21:39;100217.41;;;9.05;78.54
75418;BME280;63997;52.112;5.420;2023-03-25T01:24:06;100220.06;;;9.05;78.35
75418;BME280;63997;52.112;5.420;2023-03-25T01:26:33;100231.44;;;9.06;78.53
75418;BME280;63997;52.112;5.420;2023-03-25T01:28:59;100213.63;;;9.06;78.64
75418;BME280;63997;52.112;5.420;2023-03-25T01:31:26;100214.75;;;9.05;78.50
75418;BME280;63997;52.112;5.420;2023-03-25T01:33:56;100215.53;;;9.06;78.33
75418;BME280;63997;52.112;5.420;2023-03-25T01:36:23;100215.84;;;9.04;78.81
75418;BME280;63997;52.112;5.420;2023-03-25T01:38:50;100219.13;;;9.01;79.06
75418;BME280;63997;52.112;5.420;2023-03-25T01:41:17;100202.78;;;8.99;79.29
75418;BME280;63997;52.112;5.420;2023-03-25T01:44:03;100209.81;;;8.95;79.71
75418;BME280;63997;52.112;5.420;2023-03-25T01:46:30;100207.94;;;8.95;79.58
75418;BME280;63997;52.112;5.420;2023-03-25T01:48:58;100205.94;;;8.92;80.00
75418;BME280;63997;52.112;5.420;2023-03-25T01:51:31;100204.25;;;8.88;80.35
75418;BME280;63997;52.112;5.420;2023-03-25T01:54:00;100210.97;;;8.85;80.45
75418;BME280;63997;52.112;5.420;2023-03-25T01:56:30;100204.44;;;8.83;80.81
75418;BME280;63997;52.112;5.420;2023-03-25T01:59:00;100205.41;;;8.78;81.06
75418;BME280;63997;52.112;5.420;2023-03-25T02:01:28;100204.63;;;8.78;81.56
75418;BME280;63997;52.112;5.420;2023-03-25T02:03:57;100204.50;;;8.74;81.75
75418;BME280;63997;52.112;5.420;2023-03-25T02:06:33;100208.25;;;8.73;81.87
75418;BME280;63997;52.112;5.420;2023-03-25T02:09:03;100199.06;;;8.70;81.99
75418;BME280;63997;52.112;5.420;2023-03-25T02:11:34;100201.25;;;8.68;82.02
75418;BME280;63997;52.112;5.420;2023-03-25T02:14:05;100201.25;;;8.68;82.10
75418;BME280;63997;52.112;5.420;2023-03-25T02:16:46;100199.25;;;8.65;81.95
75418;BME280;63997;52.112;5.420;2023-03-25T02:19:32;100201.00;;;8.61;82.32
75418;BME280;63997;52.112;5.420;2023-03-25T02:22:24;100201.31;;;8.60;82.80
75418;BME280;63997;52.112;5.420;2023-03-25T02:30:49;100198.13;;;8.45;84.57
75418;BME280;63997;52.112;5.420;2023-03-25T02:39:13;100197.66;;;8.35;85.69
75418;BME280;63997;52.112;5.420;2023-03-25T02:42:01;100189.91;;;8.30;85.82
75418;BME280;63997;52.112;5.420;2023-03-25T02:44:37;100197.06;;;8.29;85.81
75418;BME280;63997;52.112;5.420;2023-03-25T02:47:09;100185.25;;;8.27;86.08
75418;BME280;63997;52.112;5.420;2023-03-25T02:49:48;100188.34;;;8.29;86.10
75418;BME280;63997;52.112;5.420;2023-03-25T02:52:30;100198.94;;;8.29;86.11
75418;BME280;63997;52.112;5.420;2023-03-25T02:55:00;100202.06;;;8.31;86.21
75418;BME280;63997;52.112;5.420;2023-03-25T02:57:32;100188.81;;;8.31;85.95
75418;BME280;63997;52.112;5.420;2023-03-25T03:00:02;100185.84;;;8.32;86.01
75418;BME280;63997;52.112;5.420;2023-03-25T03:02:36;100193.16;;;8.35;85.89
75418;BME280;63997;52.112;5.420;2023-03-25T03:05:20;100183.34;;;8.36;85.92
75418;BME280;63997;52.112;5.420;2023-03-25T03:07:52;100186.47;;;8.38;85.90
75418;BME280;63997;52.112;5.420;2023-03-25T03:10:25;100180.84;;;8.39;85.66
75418;BME280;63997;52.112;5.420;2023-03-25T03:18:31;100169.16;;;8.40;85.54
75418;BME280;63997;52.112;5.420;2023-03-25T03:21:18;100176.13;;;8.45;85.17
75418;BME280;63997;52.112;5.420;2023-03-25T03:23:58;100173.03;;;8.43;85.28
75418;BME280;63997;52.112;5.420;2023-03-25T03:26:43;100166.66;;;8.44;85.28
75418;BME280;63997;52.112;5.420;2023-03-25T03:29:16;100168.53;;;8.43;85.10
75418;BME280;63997;52.112;5.420;2023-03-25T03:31:57;100181.44;;;8.45;85.19
75418;BME280;63997;52.112;5.420;2023-03-25T03:34:37;100170.06;;;8.44;85.19
75418;BME280;63997;52.112;5.420;2023-03-25T03:37:15;100174.59;;;8.44;85.40
75418;BME280;63997;52.112;5.420;2023-03-25T03:39:44;100166.66;;;8.44;85.46
75418;BME280;63997;52.112;5.420;2023-03-25T03:42:21;100161.34;;;8.44;85.50
75418;BME280;63997;52.112;5.420;2023-03-25T03:44:52;100165.88;;;8.43;85.47
75418;BME280;63997;52.112;5.420;2023-03-25T03:47:24;100164.00;;;8.44;85.20
75418;BME280;63997;52.112;5.420;2023-03-25T03:50:00;100166.19;;;8.42;85.33
75418;BME280;63997;52.112;5.420;2023-03-25T03:52:42;100167.75;;;8.43;85.22
75418;BME280;63997;52.112;5.420;2023-03-25T03:55:18;100156.38;;;8.42;85.38
75418;BME280;63997;52.112;5.420;2023-03-25T03:57:52;100160.56;;;8.43;85.31
75418;BME280;63997;52.112;5.420;2023-03-25T04:00:28;100157.44;;;8.41;85.51
75418;BME280;63997;52.112;5.420;2023-03-25T04:03:03;100159.31;;;8.41;85.76
75418;BME280;63997;52.112;5.420;2023-03-25T04:05:34;100158.88;;;8.39;85.92
75418;BME280;63997;52.112;5.420;2023-03-25T04:08:10;100154.22;;;8.36;86.02
75418;BME280;63997;52.112;5.420;2023-03-25T04:10:51;100146.25;;;8.36;86.25
75418;BME280;63997;52.112;5.420;2023-03-25T04:13:31;100148.91;;;8.36;85.98
75418;BME280;63997;52.112;5.420;2023-03-25T04:15:59;100155.00;;;8.36;85.98
75418;BME280;63997;52.112;5.420;2023-03-25T04:18:26;100143.63;;;8.36;86.14
75418;BME280;63997;52.112;5.420;2023-03-25T04:20:54;100137.84;;;8.34;86.63
75418;BME280;63997;52.112;5.420;2023-03-25T04:23:20;100145.78;;;8.34;86.51
75418;BME280;63997;52.112;5.420;2023-03-25T04:25:47;100144.22;;;8.33;86.38
75418;BME280;63997;52.112;5.420;2023-03-25T04:28:20;100145.34;;;8.32;86.38
75418;BME280;63997;52.112;5.420;2023-03-25T04:30:46;100149.09;;;8.31;86.50
75418;BME280;63997;52.112;5.420;2023-03-25T04:33:13;100137.69;;;8.30;86.71
75418;BME280;63997;52.112;5.420;2023-03-25T04:35:40;100132.28;;;8.27;87.07
75418;BME280;63997;52.112;5.420;2023-03-25T04:38:06;100145.84;;;8.25;87.25
75418;BME280;63997;52.112;5.420;2023-03-25T04:40:33;100130.59;;;8.22;87.43
75418;BME280;63997;52.112;5.420;2023-03-25T04:42:59;100119.06;;;8.18;87.58
75418;BME280;63997;52.112;5.420;2023-03-25T04:45:26;100138.38;;;8.18;87.78
75418;BME280;63997;52.112;5.420;2023-03-25T04:47:53;100144.34;;;8.15;87.85
75418;BME280;63997;52.112;5.420;2023-03-25T04:50:26;100149.47;;;8.12;87.83
75418;BME280;63997;52.112;5.420;2023-03-25T04:52:53;100165.69;;;8.10;87.85
75418;BME280;63997;52.112;5.420;2023-03-25T04:55:23;100171.16;;;8.14;87.89
75418;BME280;63997;52.112;5.420;2023-03-25T04:57:52;100168.78;;;8.12;88.05
75418;BME280;63997;52.112;5.420;2023-03-25T05:00:22;100171.00;;;8.10;88.10
75418;BME280;63997;52.112;5.420;2023-03-25T05:02:51;100167.56;;;8.10;88.22
75418;BME280;63997;52.112;5.420;2023-03-25T05:05:21;100168.97;;;8.07;87.90
75418;BME280;63997;52.112;5.420;2023-03-25T05:07:51;100170.53;;;8.08;87.76
75418;BME280;63997;52.112;5.420;2023-03-25T05:10:21;100182.69;;;8.09;87.80
75418;BME280;63997;52.112;5.420;2023-03-25T05:12:48;100182.03;;;8.12;87.77
75418;BME280;63997;52.112;5.420;2023-03-25T05:15:16;100168.78;;;8.12;87.62
75418;BME280;63997;52.112;5.420;2023-03-25T05:17:43;100166.63;;;8.14;87.79
75418;BME280;63997;52.112;5.420;2023-03-25T05:20:11;100174.56;;;8.14;87.52
75418;BME280;63997;52.112;5.420;2023-03-25T05:22:37;100171.44;;;8.12;87.56
75418;BME280;63997;52.112;5.420;2023-03-25T05:25:05;100167.25;;;8.11;87.48
75418;BME280;63997;52.112;5.420;2023-03-25T05:27:32;100176.28;;;8.10;87.59
75418;BME280;63997;52.112;5.420;2023-03-25T05:29:59;100180.81;;;8.10;87.44
75418;BME280;63997;52.112;5.420;2023-03-25T05:32:27;100185.63;;;8.08;87.48
75418;BME280;63997;52.112;5.420;2023-03-25T05:34:55;100165.88;;;8.05;87.52
75418;BME280;63997;52.112;5.420;2023-03-25T05:37:22;100174.44;;;8.02;87.39
75418;BME280;63997;52.112;5.420;2023-03-25T05:39:48;100174.91;;;8.04;87.12
75418;BME280;63997;52.112;5.420;2023-03-25T05:42:15;100170.25;;;8.01;86.77
75418;BME280;63997;52.112;5.420;2023-03-25T05:44:42;100180.38;;;7.99;86.98
75418;BME280;63997;52.112;5.420;2023-03-25T05:47:18;100183.03;;;7.99;87.05
75418;BME280;63997;52.112;5.420;2023-03-25T05:49:50;100186.59;;;8.03;86.94
75418;BME280;63997;52.112;5.420;2023-03-25T05:52:18;100189.09;;;8.08;86.58
75418;BME280;63997;52.112;5.420;2023-03-25T05:54:45;100197.94;;;8.12;86.55
75418;BME280;63997;52.112;5.420;2023-03-25T05:57:12;100195.44;;;8.16;86.36
75418;BME280;63997;52.112;5.420;2023-03-25T05:59:38;100193.09;;;8.14;86.36
75418;BME280;63997;52.112;5.420;2023-03-25T06:02:15;100183.59;;;8.13;85.89
75418;BME280;63997;52.112;5.420;2023-03-25T06:04:42;100196.06;;;8.13;85.75
75418;BME280;63997;52.112;5.420;2023-03-25T06:07:12;100197.94;;;8.12;85.64
75418;BME280;63997;52.112;5.420;2023-03-25T06:09:45;100194.97;;;8.14;85.55
75418;BME280;63997;52.112;5.420;2023-03-25T06:12:17;100197.63;;;8.14;85.65
75418;BME280;63997;52.112;5.420;2023-03-25T06:14:46;100205.06;;;8.20;85.48
75418;BME280;63997;52.112;5.420;2023-03-25T06:17:16;100199.59;;;8.26;85.57
75418;BME280;63997;52.112;5.420;2023-03-25T06:19:44;100202.38;;;8.29;85.34
75418;BME280;63997;52.112;5.420;2023-03-25T06:22:11;100205.03;;;8.29;85.58
75418;BME280;63997;52.112;5.420;2023-03-25T06:24:38;100202.69;;;8.28;85.27
75418;BME280;63997;52.112;5.420;2023-03-25T06:27:09;100196.28;;;8.29;85.16
75418;BME280;63997;52.112;5.420;2023-03-25T06:29:37;100193.94;;;8.36;85.18
75418;BME280;63997;52.112;5.420;2023-03-25T06:32:04;100199.81;;;8.50;85.02
75418;BME280;63997;52.112;5.420;2023-03-25T06:34:31;100205.00;;;8.67;84.55
75418;BME280;63997;52.112;5.420;2023-03-25T06:37:00;100210.19;;;8.85;84.44
75418;BME280;63997;52.112;5.420;2023-03-25T06:39:28;100202.44;;;9.00;83.46
75418;BME280;63997;52.112;5.420;2023-03-25T06:41:59;100206.53;;;8.98;83.26
75418;BME280;63997;52.112;5.420;2023-03-25T06:44:26;100216.16;;;8.82;84.04
75418;BME280;63997;52.112;5.420;2023-03-25T06:46:53;100206.13;;;8.66;84.41
75418;BME280;63997;52.112;5.420;2023-03-25T06:49:20;100213.81;;;8.59;85.01
75418;BME280;63997;52.112;5.420;2023-03-25T06:51:46;100215.09;;;8.53;85.17
75418;BME280;63997;52.112;5.420;2023-03-25T06:54:13;100213.25;;;8.45;85.58
75418;BME280;63997;52.112;5.420;2023-03-25T06:56:40;100221.38;;;8.40;85.97
75418;BME280;63997;52.112;5.420;2023-03-25T06:59:07;100218.88;;;8.35;86.35
75418;BME280;63997;52.112;5.420;2023-03-25T07:01:33;100230.13;;;8.32;86.73
75418;BME280;63997;52.112;5.420;2023-03-25T07:03:59;100230.88;;;8.32;86.94
75418;BME280;63997;52.112;5.420;2023-03-25T07:06:26;100230.75;;;8.29;86.93
75418;BME280;63997;52.112;5.420;2023-03-25T07:08:52;100230.28;;;8.27;87.09
75418;BME280;63997;52.112;5.420;2023-03-25T07:11:24;100239.63;;;8.24;87.76
75418;BME280;63997;52.112;5.420;2023-03-25T07:13:51;100230.31;;;8.18;87.79
75418;BME280;63997;52.112;5.420;2023-03-25T07:16:19;100227.97;;;8.16;88.24
75418;BME280;63997;52.112;5.420;2023-03-25T07:18:47;100225.34;;;8.16;88.60
75418;BME280;63997;52.112;5.420;2023-03-25T07:21:15;100234.38;;;8.15;88.40
75418;BME280;63997;52.112;5.420;2023-03-25T07:23:41;100229.84;;;8.16;88.72
75418;BME280;63997;52.112;5.420;2023-03-25T07:26:08;100233.28;;;8.16;88.82
75418;BME280;63997;52.112;5.420;2023-03-25T07:28:34;100242.31;;;8.15;88.73
75418;BME280;63997;52.112;5.420;2023-03-25T07:31:10;100239.69;;;8.15;88.96
75418;BME280;63997;52.112;5.420;2023-03-25T07:33:38;100240.91;;;8.18;89.06
75418;BME280;63997;52.112;5.420;2023-03-25T07:36:05;100240.91;;;8.18;89.08
75418;BME280;63997;52.112;5.420;2023-03-25T07:38:33;100245.53;;;8.30;89.15
75418;BME280;63997;52.112;5.420;2023-03-25T07:41:07;100251.16;;;8.28;89.20
75418;BME280;63997;52.112;5.420;2023-03-25T07:43:33;100248.34;;;8.33;89.34
75418;BME280;63997;52.112;5.420;2023-03-25T07:46:00;100249.84;;;8.52;89.06
75418;BME280;63997;52.112;5.420;2023-03-25T07:48:27;100238.28;;;8.56;88.50
75418;BME280;63997;52.112;5.420;2023-03-25T07:50:53;100239.03;;;8.65;87.87
75418;BME280;63997;52.112;5.420;2023-03-25T07:53:20;100243.66;;;8.68;87.96
75418;BME280;63997;52.112;5.420;2023-03-25T07:55:46;100250.50;;;8.69;87.83
75418;BME280;63997;52.112;5.420;2023-03-25T07:58:17;100252.09;;;8.70;87.87
75418;BME280;63997;52.112;5.420;2023-03-25T08:00:44;100243.22;;;8.66;87.58
75418;BME280;63997;52.112;5.420;2023-03-25T08:03:12;100250.56;;;8.61;88.00
75418;BME280;63997;52.112;5.420;2023-03-25T08:05:45;100241.69;;;8.57;87.71
75418;BME280;63997;52.112;5.420;2023-03-25T08:08:12;100246.22;;;8.56;87.88
75418;BME280;63997;52.112;5.420;2023-03-25T08:10:43;100248.25;;;8.59;88.05
75418;BME280;63997;52.112;5.420;2023-03-25T08:13:12;100254.63;;;8.58;87.57
75418;BME280;63997;52.112;5.420;2023-03-25T08:15:39;100253.06;;;8.57;87.65
75418;BME280;63997;52.112;5.420;2023-03-25T08:18:06;100264.59;;;8.61;87.40
75418;BME280;63997;52.112;5.420;2023-03-25T08:20:33;100259.31;;;8.61;87.33
75418;BME280;63997;52.112;5.420;2023-03-25T08:23:01;100259.13;;;8.66;87.61
75418;BME280;63997;52.112;5.420;2023-03-25T08:25:29;100265.53;;;8.65;87.55
75418;BME280;63997;52.112;5.420;2023-03-25T08:27:55;100270.84;;;8.65;87.69
75418;BME280;63997;52.112;5.420;2023-03-25T08:30:22;100262.41;;;8.63;87.96
75418;BME280;63997;52.112;5.420;2023-03-25T08:32:48;100264.28;;;8.63;87.83
75418;BME280;63997;52.112;5.420;2023-03-25T08:35:21;100270.16;;;8.68;88.17
75418;BME280;63997;52.112;5.420;2023-03-25T08:37:49;100273.31;;;8.91;88.34
75418;BME280;63997;52.112;5.420;2023-03-25T08:40:16;100273.50;;;9.16;88.37
75418;BME280;63997;52.112;5.420;2023-03-25T08:42:42;100270.31;;;9.22;87.41
75418;BME280;63997;52.112;5.420;2023-03-25T08:45:09;100275.81;;;9.17;87.39
75418;BME280;63997;52.112;5.420;2023-03-25T08:47:36;100269.53;;;9.22;87.77
75418;BME280;63997;52.112;5.420;2023-03-25T08:50:02;100267.41;;;9.36;87.36
75418;BME280;63997;52.112;5.420;2023-03-25T08:52:30;100265.22;;;9.38;87.19
75418;BME280;63997;52.112;5.420;2023-03-25T08:54:56;100276.47;;;9.56;87.23
75418;BME280;63997;52.112;5.420;2023-03-25T08:57:22;100276.88;;;9.79;86.65
75418;BME280;63997;52.112;5.420;2023-03-25T08:59:49;100269.28;;;9.90;87.03
75418;BME280;63997;52.112;5.420;2023-03-25T09:02:15;100265.44;;;10.12;86.31
75418;BME280;63997;52.112;5.420;2023-03-25T09:04:42;100266.06;;;10.66;84.25
75418;BME280;63997;52.112;5.420;2023-03-25T09:07:08;100276.94;;;10.61;82.91
75418;BME280;63997;52.112;5.420;2023-03-25T09:09:39;100275.69;;;10.58;81.80
75418;BME280;63997;52.112;5.420;2023-03-25T09:12:06;100259.09;;;10.62;83.28
75418;BME280;63997;52.112;5.420;2023-03-25T09:14:32;100273.59;;;10.64;82.70
75418;BME280;63997;52.112;5.420;2023-03-25T09:16:59;100269.59;;;10.70;82.51
75418;BME280;63997;52.112;5.420;2023-03-25T09:19:25;100265.84;;;10.71;82.28
75418;BME280;63997;52.112;5.420;2023-03-25T09:21:52;100268.50;;;10.59;82.44
75418;BME280;63997;52.112;5.420;2023-03-25T09:24:18;100271.72;;;10.52;81.98
75418;BME280;63997;52.112;5.420;2023-03-25T09:26:47;100278.69;;;10.57;82.60
75418;BME280;63997;52.112;5.420;2023-03-25T09:29:14;100281.91;;;10.50;81.96
75418;BME280;63997;52.112;5.420;2023-03-25T09:31:40;100287.25;;;10.63;82.77
75418;BME280;63997;52.112;5.420;2023-03-25T09:34:07;100288.00;;;10.75;82.20
75418;BME280;63997;52.112;5.420;2023-03-25T09:36:33;100283.66;;;11.07;81.78
75418;BME280;63997;52.112;5.420;2023-03-25T09:39:00;100280.03;;;11.28;82.10
75418;BME280;63997;52.112;5.420;2023-03-25T09:44:25;100278.69;;;11.74;80.24
75418;BME280;63997;52.112;5.420;2023-03-25T09:46:54;100280.97;;;11.88;78.95
75418;BME280;63997;52.112;5.420;2023-03-25T09:49:23;100286.63;;;11.58;78.55
75418;BME280;63997;52.112;5.420;2023-03-25T09:51:53;100282.94;;;11.35;79.25
75418;BME280;63997;52.112;5.420;2023-03-25T09:54:27;100283.84;;;11.15;78.69
75418;BME280;63997;52.112;5.420;2023-03-25T09:56:58;100275.13;;;11.02;79.75
75418;BME280;63997;52.112;5.420;2023-03-25T09:59:47;100296.88;;;10.92;78.62
75418;BME280;63997;52.112;5.420;2023-03-25T10:02:29;100282.13;;;10.82;79.37
75418;BME280;63997;52.112;5.420;2023-03-25T10:05:52;100288.44;;;10.77;79.53
75418;BME280;63997;52.112;5.420;2023-03-25T10:08:37;100298.31;;;10.65;80.63
75418;BME280;63997;52.112;5.420;2023-03-25T10:11:19;100298.31;;;10.77;81.36
75418;BME280;63997;52.112;5.420;2023-03-25T10:17:03;100300.19;;;10.89;80.65
75418;BME280;63997;52.112;5.420;2023-03-25T10:19:57;100295.63;;;11.01;81.12
75418;BME280;63997;52.112;5.420;2023-03-25T10:25:00;100306.81;;;11.19;79.46
75418;BME280;63997;52.112;5.420;2023-03-25T10:27:35;100313.00;;;11.11;79.44
75418;BME280;63997;52.112;5.420;2023-03-25T10:30:14;100315.47;;;11.04;79.37
75418;BME280;63997;52.112;5.420;2023-03-25T10:32:48;100302.19;;;10.92;78.67
75418;BME280;63997;52.112;5.420;2023-03-25T10:35:19;100318.59;;;10.81;78.51
75418;BME280;63997;52.112;5.420;2023-03-25T10:37:48;100295.56;;;10.73;78.24
75418;BME280;63997;52.112;5.420;2023-03-25T10:40:26;100323.56;;;10.71;78.45
75418;BME280;63997;52.112;5.420;2023-03-25T10:43:13;100321.47;;;10.76;78.34
75418;BME280;63997;52.112;5.420;2023-03-25T10:45:42;100320.03;;;10.79;78.59
75418;BME280;63997;52.112;5.420;2023-03-25T10:48:23;100317.47;;;10.82;78.13
75418;BME280;63997;52.112;5.420;2023-03-25T10:53:26;100307.38;;;10.88;77.18
75418;BME280;63997;52.112;5.420;2023-03-25T10:55:57;100320.59;;;10.97;77.32
75418;BME280;63997;52.112;5.420;2023-03-25T10:58:24;100323.13;;;10.93;76.96
75418;BME280;63997;52.112;5.420;2023-03-25T11:00:51;100325.44;;;10.82;77.32
75418;BME280;63997;52.112;5.420;2023-03-25T11:03:30;100334.44;;;10.66;78.93
75418;BME280;63997;52.112;5.420;2023-03-25T11:05:59;100349.59;;;10.65;79.39
75418;BME280;63997;52.112;5.420;2023-03-25T11:08:25;100346.28;;;10.68;79.42
75418;BME280;63997;52.112;5.420;2023-03-25T11:10:53;100336.44;;;10.69;78.99
75418;BME280;63997;52.112;5.420;2023-03-25T11:13:27;100341.75;;;10.69;79.27
75418;BME280;63997;52.112;5.420;2023-03-25T11:15:57;100338.75;;;10.70;78.21
75418;BME280;63997;52.112;5.420;2023-03-25T11:20:56;100331.34;;;10.76;78.13
75418;BME280;63997;52.112;5.420;2023-03-25T11:23:46;100357.59;;;10.77;78.08
75418;BME280;63997;52.112;5.420;2023-03-25T11:26:28;100354.28;;;10.80;78.05
75418;BME280;63997;52.112;5.420;2023-03-25T11:29:10;100350.72;;;11.13;77.94
75418;BME280;63997;52.112;5.420;2023-03-25T11:31:40;100348.69;;;11.22;76.97
75418;BME280;63997;52.112;5.420;2023-03-25T11:36:38;100355.59;;;10.99;76.38
75418;BME280;63997;52.112;5.420;2023-03-25T11:39:29;100358.94;;;10.83;76.28
75418;BME280;63997;52.112;5.420;2023-03-25T11:41:58;100352.94;;;10.86;77.39
75418;BME280;63997;52.112;5.420;2023-03-25T11:44:30;100358.47;;;10.94;77.22
75418;BME280;63997;52.112;5.420;2023-03-25T11:47:05;100341.53;;;10.86;75.61
75418;BME280;63997;52.112;5.420;2023-03-25T11:49:34;100354.63;;;10.91;76.57
75418;BME280;63997;52.112;5.420;2023-03-25T11:52:06;100357.81;;;11.09;76.20
75418;BME280;63997;52.112;5.420;2023-03-25T11:54:34;100346.19;;;11.13;75.41
75418;BME280;63997;52.112;5.420;2023-03-25T11:57:05;100367.91;;;11.03;74.54
75418;BME280;63997;52.112;5.420;2023-03-25T11:59:42;100352.06;;;10.95;76.64
75418;BME280;63997;52.112;5.420;2023-03-25T12:02:37;100346.75;;;11.07;77.23
75418;BME280;63997;52.112;5.420;2023-03-25T12:07:41;100348.03;;;11.37;75.96
75418;BME280;63997;52.112;5.420;2023-03-25T12:10:37;100329.38;;;11.37;75.73
75418;BME280;63997;52.112;5.420;2023-03-25T12:18:53;100345.09;;;11.55;75.00
75418;BME280;63997;52.112;5.420;2023-03-25T12:21:32;100332.28;;;11.73;75.90
75418;BME280;63997;52.112;5.420;2023-03-25T12:25:00;100343.38;;;11.75;73.72
75418;BME280;63997;52.112;5.420;2023-03-25T12:27:38;100343.63;;;12.26;74.29
75418;BME280;63997;52.112;5.420;2023-03-25T12:35:48;100323.09;;;13.09;73.44
75418;BME280;63997;52.112;5.420;2023-03-25T12:38:48;100323.59;;;13.30;71.82
75418;BME280;63997;52.112;5.420;2023-03-25T12:41:21;100309.50;;;13.14;68.64
75418;BME280;63997;52.112;5.420;2023-03-25T12:44:11;100329.50;;;12.88;69.04
75418;BME280;63997;52.112;5.420;2023-03-25T12:47:05;100325.75;;;12.58;70.50
75418;BME280;63997;52.112;5.420;2023-03-25T12:58:28;100330.44;;;12.17;68.29
75418;BME280;63997;52.112;5.420;2023-03-25T13:01:18;100332.44;;;12.20;69.02
75418;BME280;63997;52.112;5.420;2023-03-25T13:04:11;100324.97;;;12.26;69.48
75418;BME280;63997;52.112;5.420;2023-03-25T13:06:46;100330.56;;;12.52;69.95
75418;BME280;63997;52.112;5.420;2023-03-25T13:09:28;100343.72;;;12.77;69.03
75418;BME280;63997;52.112;5.420;2023-03-25T13:11:59;100347.25;;;12.96;67.97
75418;BME280;63997;52.112;5.420;2023-03-25T13:14:32;100326.47;;;13.21;67.34
75418;BME280;63997;52.112;5.420;2023-03-25T13:17:04;100344.66;;;13.35;66.16
75418;BME280;63997;52.112;5.420;2023-03-25T13:19:33;100332.66;;;13.45;65.31
75418;BME280;63997;52.112;5.420;2023-03-25T13:22:13;100330.34;;;13.63;65.37
75418;BME280;63997;52.112;5.420;2023-03-25T13:24:47;100342.63;;;13.29;64.40
75418;BME280;63997;52.112;5.420;2023-03-25T13:27:16;100336.50;;;13.28;64.07
75418;BME280;63997;52.112;5.420;2023-03-25T13:29:47;100363.69;;;12.98;65.57
75418;BME280;63997;52.112;5.420;2023-03-25T13:32:21;100361.47;;;12.69;66.06
75418;BME280;63997;52.112;5.420;2023-03-25T13:34:55;100347.78;;;12.55;67.06
75418;BME280;63997;52.112;5.420;2023-03-25T13:37:28;100359.56;;;12.54;68.43
75418;BME280;63997;52.112;5.420;2023-03-25T13:40:02;100354.91;;;12.82;65.88
75418;BME280;63997;52.112;5.420;2023-03-25T13:42:46;100345.78;;;12.83;67.50
75418;BME280;63997;52.112;5.420;2023-03-25T13:45:17;100379.78;;;12.86;67.21
75418;BME280;63997;52.112;5.420;2023-03-25T13:47:49;100355.75;;;13.02;67.00
75418;BME280;63997;52.112;5.420;2023-03-25T13:50:24;100370.81;;;12.94;66.65
75418;BME280;63997;52.112;5.420;2023-03-25T13:53:09;100359.38;;;12.94;65.36
75418;BME280;63997;52.112;5.420;2023-03-25T13:55:47;100381.50;;;12.94;66.56
75418;BME280;63997;52.112;5.420;2023-03-25T13:58:54;100363.06;;;12.89;66.34
75418;BME280;63997;52.112;5.420;2023-03-25T14:01:38;100362.91;;;12.82;65.96
75418;BME280;63997;52.112;5.420;2023-03-25T14:04:20;100376.69;;;12.68;66.95
75418;BME280;63997;52.112;5.420;2023-03-25T14:09:57;100418.47;;;12.05;69.50
75418;BME280;63997;52.112;5.420;2023-03-25T14:12:36;100440.75;;;11.60;72.73
75418;BME280;63997;52.112;5.420;2023-03-25T14:15:17;100444.22;;;11.24;73.82
75418;BME280;63997;52.112;5.420;2023-03-25T14:17:45;100456.97;;;11.06;75.16
75418;BME280;63997;52.112;5.420;2023-03-25T14:20:24;100442.63;;;10.86;75.55